Time;durP1;ratioP1;P1;durP2;ratioP2;P2;SDS_P1;SDS_P2;PMS_P1;PMS_P2;Temp;Humidity;BMP_temperature;BMP_pressure;BME280_temperature;BME280_humidity;BME280_pressure;Samples;Min_cycle;Max_cycle;Signal;HPM_P1;HPM_P2
2023/10/20 00:00:14;;;;;;;3.75;2.35;;;15.40;99.90;;;;;;4967900;28;20069;-84
2023/10/20 00:02:41;;;;;;;3.53;2.55;;;15.40;99.90;;;;;;4964224;28;20042;-84
2023/10/20 00:05:08;;;;;;;6.30;2.80;;;15.40;99.90;;;;;;4965996;28;20100;-82
2023/10/20 00:07:35;;;;;;;3.42;2.05;;;15.40;99.90;;;;;;4945324;28;20042;-86
2023/10/20 00:10:00;;;;;;;5.55;2.53;;;15.40;99.90;;;;;;4962923;28;20051;-82
2023/10/20 00:12:26;;;;;;;3.67;2.55;;;15.30;99.90;;;;;;4946860;28;20069;-86
2023/10/20 00:14:52;;;;;;;5.72;2.75;;;15.50;99.90;;;;;;4951414;28;20520;-86
2023/10/20 00:17:19;;;;;;;2.95;2.30;;;15.30;99.90;;;;;;4953662;28;20098;-84
2023/10/20 00:19:45;;;;;;;4.28;2.60;;;15.30;99.90;;;;;;4949289;28;20114;-84
2023/10/20 00:22:11;;;;;;;4.35;2.38;;;15.30;99.90;;;;;;4950326;28;20260;-84
2023/10/20 00:24:36;;;;;;;5.53;2.70;;;15.30;99.90;;;;;;4962270;28;20036;-85
2023/10/20 00:29:35;;;;;;;4.22;2.35;;;15.30;99.90;;;;;;5044270;28;20036;-88
2023/10/20 00:32:01;;;;;;;3.80;2.40;;;15.30;99.90;;;;;;5049240;28;20006;-89
2023/10/20 00:34:27;;;;;;;3.65;2.60;;;16.10;99.90;;;;;;5046140;28;20028;-88
2023/10/20 00:36:52;;;;;;;3.58;2.60;;;15.50;99.90;;;;;;5044350;28;20112;-89
2023/10/20 00:39:19;;;;;;;3.88;1.90;;;15.30;99.90;;;;;;5035497;28;20515;-89
2023/10/20 00:41:44;;;;;;;4.53;2.38;;;15.30;99.90;;;;;;5016323;28;20129;-88
2023/10/20 00:44:10;;;;;;;3.80;2.53;;;15.30;99.90;;;;;;5022830;28;20041;-89
2023/10/20 00:46:36;;;;;;;4.53;2.20;;;15.40;99.90;;;;;;5024741;28;20037;-89
2023/10/20 00:49:02;;;;;;;4.50;2.45;;;15.40;99.90;;;;;;5025083;28;20036;-90
2023/10/20 00:51:28;;;;;;;3.67;2.40;;;15.30;99.90;;;;;;5024201;28;20026;-89
2023/10/20 00:53:58;;;;;;;4.20;2.15;;;15.30;99.90;;;;;;5020734;28;20030;-89
2023/10/20 00:56:25;;;;;;;4.88;2.40;;;15.90;99.90;;;;;;5025418;28;20022;-91
2023/10/20 00:58:51;;;;;;;4.20;2.33;;;15.70;99.90;;;;;;5020345;28;20018;-91
2023/10/20 01:01:17;;;;;;;3.08;2.10;;;15.90;99.90;;;;;;5019814;28;20093;-89
2023/10/20 01:03:43;;;;;;;4.05;2.13;;;15.30;99.90;;;;;;5026219;28;20077;-89
2023/10/20 01:06:08;;;;;;;4.70;2.60;;;15.40;99.90;;;;;;5026555;28;20045;-87
2023/10/20 01:08:34;;;;;;;6.70;2.55;;;17.00;99.90;;;;;;5028446;28;20048;-89
2023/10/20 01:10:59;;;;;;;4.28;2.15;;;16.00;99.90;;;;;;5034640;28;20041;-89
2023/10/20 01:13:25;;;;;;;4.43;1.90;;;15.60;99.90;;;;;;5032799;28;20021;-89
2023/10/20 01:15:51;;;;;;;3.65;2.20;;;15.40;99.90;;;;;;5029423;28;20034;-89
2023/10/20 01:18:17;;;;;;;4.25;2.67;;;16.30;99.90;;;;;;5021123;28;20041;-91
2023/10/20 01:20:44;;;;;;;2.97;1.90;;;15.20;99.90;;;;;;5015848;28;20026;-90
2023/10/20 01:23:10;;;;;;;4.90;2.50;;;16.30;99.90;;;;;;5023800;28;20053;-89
2023/10/20 01:25:36;;;;;;;3.75;2.10;;;16.50;99.90;;;;;;5023809;28;20034;-89
2023/10/20 01:28:03;;;;;;;3.80;2.10;;;15.80;99.90;;;;;;5023477;28;20082;-90
2023/10/20 01:30:29;;;;;;;6.07;2.20;;;15.30;99.90;;;;;;5030877;28;20041;-89
2023/10/20 01:32:54;;;;;;;5.72;2.25;;;15.20;99.90;;;;;;5030303;28;20022;-90
2023/10/20 01:35:20;;;;;;;6.10;2.30;;;15.30;99.90;;;;;;5027998;28;20033;-90
2023/10/20 01:37:46;;;;;;;3.80;2.35;;;15.50;99.90;;;;;;5028373;28;20040;-89
2023/10/20 01:40:12;;;;;;;2.72;1.80;;;15.20;99.90;;;;;;5027921;28;20037;-87
2023/10/20 01:42:38;;;;;;;4.00;2.33;;;15.20;99.90;;;;;;5028030;28;20025;-87
2023/10/20 01:45:05;;;;;;;2.95;1.70;;;15.70;99.90;;;;;;5026865;28;20057;-90
2023/10/20 01:47:31;;;;;;;4.57;1.98;;;15.20;99.90;;;;;;5024569;28;20036;-92
2023/10/20 01:49:57;;;;;;;3.38;1.67;;;16.70;99.90;;;;;;5028112;28;20057;-90
2023/10/20 01:52:23;;;;;;;2.90;1.88;;;16.10;99.90;;;;;;5025334;28;20022;-90
2023/10/20 01:54:48;;;;;;;3.85;2.05;;;15.20;99.90;;;;;;5019208;28;20755;-90
2023/10/20 01:57:14;;;;;;;3.53;1.80;;;15.40;99.90;;;;;;5027705;28;20522;-89
2023/10/20 01:59:40;;;;;;;4.10;1.75;;;15.20;99.90;;;;;;5022575;28;20014;-89
2023/10/20 02:02:05;;;;;;;4.32;2.15;;;15.40;99.90;;;;;;5023873;28;20030;-89
2023/10/20 02:04:31;;;;;;;2.63;1.90;;;17.00;99.90;;;;;;5023392;28;20010;-91
2023/10/20 02:06:57;;;;;;;3.15;2.00;;;15.20;99.90;;;;;;5028285;28;20002;-88
2023/10/20 02:09:26;;;;;;;3.85;2.10;;;15.50;99.90;;;;;;5042765;28;20060;-89
2023/10/20 02:11:56;;;;;;;3.20;2.00;;;15.40;99.90;;;;;;5031929;28;20010;-90
2023/10/20 02:14:22;;;;;;;3.45;2.20;;;15.40;99.90;;;;;;5032020;28;20022;-90
2023/10/20 02:16:48;;;;;;;3.72;2.20;;;15.80;99.90;;;;;;5024816;28;20056;-90
2023/10/20 02:19:15;;;;;;;3.63;2.15;;;15.50;99.90;;;;;;5038486;28;20022;-89
2023/10/20 02:21:41;;;;;;;4.43;2.00;;;16.20;99.90;;;;;;5026734;28;20038;-89
2023/10/20 02:24:07;;;;;;;5.15;1.95;;;15.10;99.90;;;;;;5028793;28;20093;-89
2023/10/20 02:26:33;;;;;;;3.05;1.80;;;15.20;99.90;;;;;;5017120;28;20026;-88
2023/10/20 02:28:59;;;;;;;3.22;2.38;;;16.00;99.90;;;;;;5024141;28;20086;-89
2023/10/20 02:31:43;;;;;;;;;;;;;;;;;;;;;
2023/10/20 02:37:12;;;;;;;3.30;2.00;;;15.10;99.90;;;;;;5018087;28;21184;-79
2023/10/20 04:51:12;;;;;;;3.13;2.45;;;14.70;99.90;;;;;;4993157;28;20037;-82
2023/10/20 04:54:07;;;;;;;4.22;2.67;;;14.90;99.90;;;;;;4989440;28;20033;-80
2023/10/20 04:59:22;;;;;;;4.13;2.85;;;14.90;99.90;;;;;;4989352;28;20037;-78
2023/10/20 05:01:49;;;;;;;6.80;3.15;;;14.80;99.90;;;;;;4985826;28;20034;-85
2023/10/20 05:04:24;;;;;;;4.25;3.05;;;14.80;99.90;;;;;;4982312;28;20073;-82
2023/10/20 05:07:05;;;;;;;5.82;3.05;;;14.80;99.90;;;;;;5011434;28;20022;-79
2023/10/20 05:09:33;;;;;;;5.35;2.80;;;14.80;99.90;;;;;;5008065;28;20030;-79
2023/10/20 05:11:59;;;;;;;4.20;2.78;;;14.80;99.90;;;;;;5006068;28;20042;-82
2023/10/20 05:14:25;;;;;;;4.85;3.05;;;14.80;99.90;;;;;;5004183;28;20064;-82
2023/10/20 05:16:51;;;;;;;5.07;2.85;;;14.80;99.90;;;;;;4986960;28;20033;-84
2023/10/20 05:19:16;;;;;;;3.00;2.13;;;14.40;99.90;;;;;;4976480;28;20102;-84
2023/10/20 05:21:42;;;;;;;5.00;3.20;;;14.80;99.90;;;;;;4972548;28;21395;-79
2023/10/20 05:24:08;;;;;;;5.50;3.50;;;14.70;99.90;;;;;;4969384;28;20034;-82
2023/10/20 05:26:34;;;;;;;6.95;3.92;;;14.80;99.90;;;;;;4978382;28;20033;-84
2023/10/20 05:29:01;;;;;;;5.07;2.80;;;14.80;99.90;;;;;;4987247;28;20034;-85
2023/10/20 05:31:29;;;;;;;4.68;2.42;;;14.90;99.90;;;;;;4987541;28;20085;-83
2023/10/20 05:33:55;;;;;;;6.20;3.05;;;14.80;99.90;;;;;;4983137;28;20093;-85
2023/10/20 05:36:21;;;;;;;6.35;3.38;;;14.90;99.90;;;;;;4991237;28;20165;-83
2023/10/20 05:38:47;;;;;;;5.05;2.83;;;14.90;99.90;;;;;;4999348;28;20086;-86
2023/10/20 05:41:12;;;;;;;3.60;2.13;;;14.90;99.90;;;;;;4998314;28;20058;-82
2023/10/20 05:43:38;;;;;;;3.83;2.10;;;15.00;99.90;;;;;;4999020;28;20041;-80
2023/10/20 05:46:04;;;;;;;3.63;2.20;;;14.90;99.90;;;;;;4997738;28;20038;-86
2023/10/20 05:48:31;;;;;;;4.75;2.33;;;14.90;99.90;;;;;;4998422;28;20029;-86
2023/10/20 05:50:57;;;;;;;3.83;2.63;;;14.90;99.90;;;;;;4997210;28;20057;-86
2023/10/20 05:53:24;;;;;;;4.22;2.08;;;14.90;99.90;;;;;;4998264;28;20586;-85
2023/10/20 05:55:51;;;;;;;4.88;2.35;;;15.00;99.90;;;;;;5005001;28;20110;-86
2023/10/20 05:58:17;;;;;;;4.85;2.20;;;14.90;99.90;;;;;;5005639;28;20585;-85
2023/10/20 06:00:43;;;;;;;4.63;2.42;;;14.90;99.90;;;;;;4995512;28;20034;-86
2023/10/20 06:03:09;;;;;;;6.30;2.55;;;14.90;99.90;;;;;;4997032;28;20029;-84
2023/10/20 06:05:35;;;;;;;3.95;2.10;;;15.70;99.90;;;;;;4994150;28;20030;-88
2023/10/20 06:08:01;;;;;;;6.95;2.40;;;14.90;99.90;;;;;;4995355;28;20025;-87
2023/10/20 06:10:27;;;;;;;4.38;2.50;;;14.80;99.90;;;;;;4997540;28;20030;-86
2023/10/20 06:12:54;;;;;;;5.80;2.47;;;14.90;99.90;;;;;;4994962;28;20018;-86
2023/10/20 06:15:20;;;;;;;4.65;2.10;;;14.90;99.90;;;;;;4994054;28;20029;-83
2023/10/20 06:17:47;;;;;;;4.28;2.17;;;14.80;99.90;;;;;;4985932;28;20034;-85
2023/10/20 06:20:14;;;;;;;3.85;2.28;;;15.20;99.90;;;;;;4978115;28;20093;-85
2023/10/20 06:22:41;;;;;;;5.05;2.38;;;15.00;99.90;;;;;;4989873;28;20430;-83
2023/10/20 06:25:12;;;;;;;5.15;2.10;;;15.00;99.90;;;;;;4997513;28;20035;-87
2023/10/20 06:27:43;;;;;;;;;;;15.00;99.90;;;;;;5006936;28;20375;-82
2023/10/20 06:30:21;;;;;;;5.32;2.95;;;15.00;99.90;;;;;;5005606;28;19909;-86
2023/10/20 06:33:31;;;;;;;5.22;2.45;;;15.00;99.90;;;;;;4998637;28;20484;-84
2023/10/20 06:35:53;;;;;;;5.50;3.10;;;15.00;99.90;;;;;;4996593;28;20407;-86
2023/10/20 06:38:40;;;;;;;7.20;3.58;;;15.00;99.90;;;;;;4997213;28;20026;-82
2023/10/20 06:41:06;;;;;;;8.93;3.50;;;15.10;99.90;;;;;;5002553;28;20397;-82
2023/10/20 06:43:32;;;;;;;7.72;3.53;;;15.10;99.90;;;;;;5013343;28;20471;-83
2023/10/20 06:45:59;;;;;;;7.10;2.53;;;15.20;99.90;;;;;;4997929;28;20045;-83
2023/10/20 06:48:26;;;;;;;3.75;2.15;;;15.00;99.90;;;;;;4997630;28;20038;-84
2023/10/20 06:50:54;;;;;;;5.03;2.20;;;15.10;99.90;;;;;;4997258;28;20039;-83
2023/10/20 06:53:20;;;;;;;3.67;2.10;;;15.00;99.90;;;;;;4997547;28;20023;-87
2023/10/20 06:55:49;;;;;;;4.22;2.00;;;15.10;99.90;;;;;;4997319;28;20044;-82
2023/10/20 06:58:18;;;;;;;7.88;2.67;;;15.10;99.90;;;;;;4997093;28;20415;-84
2023/10/20 07:00:47;;;;;;;4.10;1.98;;;15.20;99.90;;;;;;4999118;28;20039;-81
2023/10/20 07:03:14;;;;;;;3.28;2.30;;;15.10;99.90;;;;;;4998674;28;20030;-84
2023/10/20 07:05:44;;;;;;;4.82;2.00;;;15.10;99.90;;;;;;4998864;28;20058;-84
2023/10/20 07:08:10;;;;;;;5.07;2.22;;;15.10;99.90;;;;;;4997039;28;20023;-81
2023/10/20 07:10:37;;;;;;;4.97;2.08;;;15.10;99.90;;;;;;4999165;28;20061;-82
2023/10/20 07:13:07;;;;;;;4.53;2.50;;;15.10;99.90;;;;;;4998476;28;20050;-83
2023/10/20 07:15:37;;;;;;;3.50;2.10;;;15.30;99.90;;;;;;4996715;28;20033;-86
2023/10/20 07:18:05;;;;;;;3.85;2.40;;;15.20;99.90;;;;;;4997444;28;20269;-85
2023/10/20 07:20:38;;;;;;;8.20;3.30;;;15.20;99.90;;;;;;4997348;28;20108;-85
2023/10/20 07:23:07;;;;;;;6.40;2.83;;;15.20;99.90;;;;;;4998089;28;20390;-84
2023/10/20 07:25:33;;;;;;;5.03;3.10;;;15.30;99.90;;;;;;4997905;28;20085;-85
2023/10/20 07:27:58;;;;;;;5.45;3.05;;;15.30;99.90;;;;;;5000361;28;20026;-85
2023/10/20 07:30:24;;;;;;;3.53;2.47;;;15.20;99.90;;;;;;5006921;28;20039;-87
2023/10/20 07:32:51;;;;;;;5.30;2.88;;;15.30;99.90;;;;;;4996680;28;20109;-85
2023/10/20 07:35:17;;;;;;;6.38;3.50;;;15.40;99.90;;;;;;4995673;28;20022;-84
2023/10/20 07:37:43;;;;;;;5.97;3.17;;;15.40;99.90;;;;;;4998021;28;20027;-88
2023/10/20 07:40:10;;;;;;;5.65;3.28;;;15.40;99.90;;;;;;4997503;28;20018;-88
2023/10/20 07:42:38;;;;;;;23.83;6.05;;;15.30;99.90;;;;;;4992923;28;20384;-87
2023/10/20 07:45:10;;;;;;;5.18;2.97;;;15.40;99.90;;;;;;4981766;28;20057;-84
2023/10/20 07:47:36;;;;;;;7.47;3.83;;;15.40;99.90;;;;;;4995473;28;20038;-88
2023/10/20 07:50:02;;;;;;;7.07;3.85;;;15.30;99.90;;;;;;4995961;28;20026;-89
2023/10/20 07:53:12;;;;;;;4.32;3.10;;;15.30;99.90;;;;;;4990326;28;20030;-88
2023/10/20 07:55:43;;;;;;;4.82;3.13;;;15.30;99.90;;;;;;4998966;28;20038;-87
2023/10/20 07:58:12;;;;;;;7.38;3.20;;;13.70;99.90;;;;;;4999881;28;20462;-83
2023/10/20 08:01:24;;;;;;;6.57;3.70;;;15.30;99.90;;;;;;5001483;28;20431;-89
2023/10/20 08:04:12;;;;;;;;;;;;;;;;;;;;;
2023/10/20 08:06:51;;;;;;;6.32;3.90;;;15.30;99.90;;;;;;5001204;28;20147;-87
2023/10/20 08:09:27;;;;;;;6.65;3.25;;;15.30;99.90;;;;;;4999461;28;20026;-85
2023/10/20 08:11:53;;;;;;;5.68;3.28;;;15.20;99.90;;;;;;5000246;28;20541;-85
2023/10/20 08:15:04;;;;;;;5.57;3.55;;;16.40;99.90;;;;;;4998341;28;20030;-86
2023/10/20 08:17:49;;;;;;;;;;;;;;;;;;;;;
2023/10/20 08:21:02;;;;;;;4.93;2.88;;;15.20;99.90;;;;;;4942439;29;20106;-85
2023/10/20 08:27:22;;;;;;;;;;;;;;;;;;;;;
2023/10/20 08:34:07;;;;;;;;;;;;;;;;;;;;;
2023/10/20 08:36:49;;;;;;;8.30;4.07;;;15.50;99.90;;;;;;4863722;29;20094;-88
2023/10/20 08:40:00;;;;;;;;;;;;;;;;;;;;;
2023/10/20 08:46:45;;;;;;;5.45;3.22;;;15.30;99.90;;;;;;4821591;29;20070;-83
2023/10/20 08:49:37;;;;;;;;;;;;;;;;;;;;;
2023/10/20 09:06:02;;;;;;;7.30;3.90;;;15.40;99.90;;;;;;4837964;29;20037;-86
2023/10/20 09:13:40;;;;;;;;;;;;;;;;;;;;;
2023/10/20 09:16:11;;;;;;;5.97;4.00;;;15.50;99.90;;;;;;4870712;29;20041;-86
2023/10/20 09:35:42;;;;;;;;;;;;;;;;;;;;;
2023/10/20 09:38:33;;;;;;;7.03;4.03;;;15.30;99.90;;;;;;4942110;29;20095;-86
2023/10/20 09:41:57;;;;;;;6.47;3.72;;;15.60;99.90;;;;;;4919957;29;20035;-88
2023/10/20 09:51:00;;;;;;;4.97;3.58;;;15.70;99.90;;;;;;4908959;29;20188;-86
2023/10/20 09:53:29;;;;;;;6.47;4.13;;;15.50;99.90;;;;;;4980264;28;20110;-85
2023/10/20 09:55:55;;;;;;;5.28;3.72;;;15.50;99.90;;;;;;4979854;28;20029;-86
2023/10/20 09:58:36;;;;;;;;;;;;;;;;;;;;;
2023/10/20 10:01:03;;;;;;;5.50;3.42;;;15.50;99.90;;;;;;4980687;28;20082;-87
2023/10/20 10:03:55;;;;;;;5.10;3.22;;;15.60;99.90;;;;;;4979557;28;20055;-87
2023/10/20 10:06:36;;;;;;;5.43;3.22;;;15.50;99.90;;;;;;4969161;28;20045;-85
2023/10/20 10:09:08;;;;;;;5.53;2.65;;;15.50;99.90;;;;;;4978084;28;20022;-88
2023/10/20 10:11:45;;;;;;;4.30;3.08;;;15.60;99.90;;;;;;4979289;28;20554;-87
2023/10/20 10:14:32;;;;;;;4.82;2.92;;;15.50;99.90;;;;;;4961496;28;20062;-88
2023/10/20 10:17:26;;;;;;;;;;;;;;;;;;;;;
2023/10/20 10:19:54;;;;;;;6.60;2.65;;;15.80;99.90;;;;;;4990457;28;20101;-87
2023/10/20 10:22:30;;;;;;;4.10;2.17;;;13.90;99.90;;;;;;4985975;28;20042;-82
2023/10/20 10:25:03;;;;;;;4.05;2.03;;;15.70;99.90;;;;;;4990029;28;20090;-84
2023/10/20 10:27:32;;;;;;;3.67;2.25;;;15.60;99.90;;;;;;5003282;28;20026;-85
2023/10/20 10:30:22;;;;;;;3.23;2.00;;;15.70;99.90;;;;;;4988681;28;20113;-85
2023/10/20 10:33:00;;;;;;;4.05;1.77;;;15.70;99.90;;;;;;4989346;28;20122;-85
2023/10/20 10:35:36;;;;;;;4.32;1.80;;;15.80;99.90;;;;;;4992002;28;20026;-86
2023/10/20 10:38:27;;;;;;;3.50;1.90;;;15.80;99.90;;;;;;4991551;28;20082;-88
2023/10/20 10:40:55;;;;;;;2.00;1.50;;;15.90;99.90;;;;;;4977526;28;20037;-85
2023/10/20 10:43:38;;;;;;;1.95;1.38;;;16.00;99.90;;;;;;4978753;28;20137;-86
2023/10/20 10:46:06;;;;;;;1.50;1.17;;;14.50;99.90;;;;;;4973335;28;20057;-86
2023/10/20 10:48:34;;;;;;;3.47;1.40;;;16.20;99.90;;;;;;4982077;28;20407;-87
2023/10/20 10:51:01;;;;;;;2.00;1.20;;;16.30;99.90;;;;;;4987184;28;20080;-87
2023/10/20 10:54:00;;;;;;;;;;;;;;;;;;;;;
2023/10/20 10:56:41;;;;;;;2.70;1.45;;;16.50;99.90;;;;;;4979873;28;20022;-89
2023/10/20 10:59:18;;;;;;;1.65;1.10;;;16.50;99.90;;;;;;4978523;28;20027;-86
2023/10/20 11:01:45;;;;;;;3.13;1.08;;;16.50;99.90;;;;;;4977584;28;20031;-90
2023/10/20 11:04:12;;;;;;;1.88;1.00;;;16.70;99.90;;;;;;4982154;28;20035;-87
2023/10/20 11:06:44;;;;;;;1.05;0.90;;;16.60;99.90;;;;;;4984968;28;20034;-84
2023/10/20 11:09:36;;;;;;;;;;;;;;;;;;;;;
2023/10/20 11:12:35;;;;;;;1.30;1.20;;;16.60;99.90;;;;;;4983443;28;20057;-86
2023/10/20 11:15:08;;;;;;;2.75;1.13;;;16.90;99.90;;;;;;4926366;29;20035;-87
2023/10/20 11:17:35;;;;;;;1.38;1.00;;;16.50;99.90;;;;;;4985017;28;20050;-85
2023/10/20 11:20:06;;;;;;;1.38;0.75;;;16.50;99.90;;;;;;4984811;28;20018;-87
2023/10/20 11:22:40;;;;;;;5.30;1.60;;;16.60;99.90;;;;;;4988024;28;20061;-86
2023/10/20 11:25:21;;;;;;;2.08;0.68;;;16.70;99.90;;;;;;4983783;28;20032;-87
2023/10/20 11:28:09;;;;;;;0.80;0.68;;;16.60;99.90;;;;;;4981999;28;20109;-89
2023/10/20 11:30:45;;;;;;;1.45;0.98;;;16.60;99.90;;;;;;4988911;28;20040;-88
2023/10/20 11:33:54;;;;;;;0.85;0.75;;;16.50;99.90;;;;;;4985825;28;20033;-88
2023/10/20 11:36:04;;;;;;;0.98;0.60;;;16.50;99.90;;;;;;4981442;28;20066;-87
2023/10/20 11:38:32;;;;;;;1.20;0.50;;;16.50;99.90;;;;;;4986886;28;20026;-88
2023/10/20 11:41:00;;;;;;;0.63;0.52;;;16.30;99.90;;;;;;4995691;28;20034;-86
2023/10/20 11:43:26;;;;;;;1.08;0.70;;;16.40;99.90;;;;;;4994064;28;20057;-86
2023/10/20 11:45:53;;;;;;;0.45;0.43;;;16.20;99.90;;;;;;4994586;28;20022;-87
2023/10/20 11:48:18;;;;;;;1.10;0.60;;;16.30;99.90;;;;;;4991637;28;20046;-86
2023/10/20 11:50:47;;;;;;;3.03;0.70;;;16.10;99.90;;;;;;4994311;28;20034;-87
2023/10/20 11:53:18;;;;;;;1.08;0.70;;;16.00;99.90;;;;;;4992051;28;20475;-88
2023/10/20 11:55:47;;;;;;;0.85;0.73;;;;;;;;;;4987644;28;20050;-87
2023/10/20 11:58:37;;;;;;;;;;;;;;;;;;;;;
2023/10/20 12:01:07;;;;;;;0.82;0.60;;;15.80;99.90;;;;;;4990839;28;20046;-87
2023/10/20 12:03:43;;;;;;;2.92;0.70;;;16.10;99.90;;;;;;4992400;28;20054;-89
2023/10/20 12:06:09;;;;;;;0.75;0.52;;;;;;;;;;4996837;28;20034;-86
2023/10/20 12:08:35;;;;;;;1.23;0.60;;;;;;;;;;4996815;28;20038;-87
2023/10/20 12:11:04;;;;;;;0.98;0.77;;;15.70;99.90;;;;;;4992552;28;20034;-86
2023/10/20 12:13:30;;;;;;;1.67;0.80;;;15.60;99.90;;;;;;4994586;28;20026;-86
2023/10/20 12:15:59;;;;;;;2.80;0.70;;;14.10;99.90;;;;;;4955969;28;20514;-86
2023/10/20 12:18:25;;;;;;;2.05;0.77;;;15.40;99.90;;;;;;4984617;28;20031;-84
2023/10/20 12:20:52;;;;;;;1.33;0.80;;;13.70;99.90;;;;;;4992735;28;20042;-86
2023/10/20 12:23:19;;;;;;;1.73;1.00;;;15.30;99.90;;;;;;4988679;28;20029;-84
2023/10/20 12:25:48;;;;;;;1.35;0.50;;;15.30;99.90;;;;;;4992457;28;20121;-86
2023/10/20 15:58:01;;;;;;;2.92;1.70;;;15.90;99.90;;;;;;4986582;28;20142;-88
